Tuesday, January 17, 2017, 3:50 AM EST
Back to Local

KORE, Orange, Orange Municipal Airport

Location: Orange, MA, United States Lat: 42.572
Local Time: 3:50 AM EST ( 8:50 GMT) Lon: -72.278
Time Zone: US/Eastern Elev: 554 ft

Show me the last for .
Show Coded

Time T Td Feel RH Dir Speed Gust Alt SLP Vis Weather Sky Remarks
2017-01-17 02:52 18 17 - 96 - Calm - 30.21 30.23 8 CLR None
2017-01-17 01:52 21 18 - 87 - Calm - 30.21 30.23 8 CLR None
2017-01-17 00:52 21 20 16 95 210° 3 - 30.21 30.23 10 CLR 6-hr Min Temp (1am): 21.0°F
6-hr Max Temp (1am): 32.0°F
2017-01-16 23:52 23 21 - 91 - Calm - 30.22 30.24 10 CLR 24-hr Min Temp (12am): 8.1°F
24-hr Max Temp (12am): 39.9°F
2017-01-16 22:52 25 22 - 87 - Calm - 30.23 30.25 10 CLR None
2017-01-16 21:52 26 23 - 87 - Calm - 30.24 30.27 10 CLR None
2017-01-16 20:52 27 22 22 80 190° 5 - 30.25 30.28 10 CLR None
2017-01-16 19:52 27 22 - 80 - Calm - 30.25 30.29 10 CLR None
2017-01-16 18:52 32 20 26 60 150° 6 - 30.26 30.29 10 CLR 6-hr Min Temp (7pm): 30.9°F
6-hr Max Temp (7pm): 39.9°F
2017-01-16 17:52 32 21 29 63 170° 3 - 30.27 30.29 10 CLR None
2017-01-16 16:52 34 21 30 58 200° 5 - 30.26 30.29 10 CLR None
2017-01-16 15:52 39 18 34 42 220° 7 - 30.26 30.29 10 CLR None
2017-01-16 14:52 40 17 33 39 220° 13 - 30.26 30.29 10 CLR None
2017-01-16 13:52 37 18 31 45 230° 8 - 30.28 30.31 10 CLR None
2017-01-16 12:52 34 19 27 53 220° 9 - 30.31 30.34 10 CLR 6-hr Min Temp (1pm): 8.1°F
6-hr Max Temp (1pm): 34.0°F
2017-01-16 11:52 32 18 23 55 190° 12 - 30.34 30.37 10 CLR None
2017-01-16 10:52 30 19 22 63 240° 8 - 30.37 30.40 10 CLR None
2017-01-16 09:52 21 18 - 87 - Calm - 30.39 30.42 10 CLR None
2017-01-16 08:52 14 13 8 95 190° 3 - 30.41 30.44 10 CLR None
2017-01-16 07:52 10 8 - 91 - Calm - 30.40 30.43 10 CLR None
2017-01-16 06:52 9 7 - 91 - Calm - 30.41 30.44 10 CLR 6-hr Min Temp (7am): 9.0°F
6-hr Max Temp (7am): 14.0°F
2017-01-16 05:52 10 8 - 91 - Calm - 30.40 30.43 10 CLR None
2017-01-16 04:52 10 8 - 91 - Calm - 30.40 30.42 10 CLR None
2017-01-16 03:52 11 9 - 91 - Calm - 30.40 30.43 10 CLR None

Support USWX by starting your Amazon purchase here.